Time;durP1;ratioP1;P1;durP2;ratioP2;P2;SDS_P1;SDS_P2;PMS_P1;PMS_P2;Temp;Humidity;BMP_temperature;BMP_pressure;BME280_temperature;BME280_humidity;BME280_pressure;Samples;Min_cycle;Max_cycle;Signal;HPM_P1;HPM_P2
2021/03/24 00:02:07;;;;;;;0.45;0.40;;;7.40;99.90;;;;;;4446039;32;20081;-79
2021/03/24 00:04:33;;;;;;;0.37;0.37;;;7.40;99.90;;;;;;4445917;32;20061;-79
2021/03/24 00:06:58;;;;;;;0.70;0.70;;;7.40;99.90;;;;;;4446103;32;20050;-79
2021/03/24 00:09:24;;;;;;;4.75;1.20;;;7.50;99.90;;;;;;4441202;32;20073;-79
2021/03/24 00:11:50;;;;;;;1.12;0.82;;;7.40;99.90;;;;;;4430129;32;20602;-80
2021/03/24 00:14:15;;;;;;;0.55;0.55;;;7.40;99.90;;;;;;4439714;32;20117;-79
2021/03/24 00:16:41;;;;;;;3.12;1.30;;;7.40;99.90;;;;;;4446549;32;20082;-79
2021/03/24 00:19:06;;;;;;;0.75;0.75;;;7.30;99.90;;;;;;4445974;32;20077;-79
2021/03/24 00:21:32;;;;;;;2.95;1.23;;;7.30;99.90;;;;;;4446377;32;20054;-79
2021/03/24 00:23:57;;;;;;;1.23;0.95;;;7.50;99.90;;;;;;4446208;32;20094;-79
2021/03/24 00:26:23;;;;;;;5.47;1.30;;;7.50;99.90;;;;;;4445295;32;20069;-79
2021/03/24 00:28:52;;;;;;;0.95;0.57;;;7.40;99.90;;;;;;4446055;32;20080;-79
2021/03/24 00:31:18;;;;;;;4.28;1.15;;;7.40;99.90;;;;;;4446023;32;20112;-79
2021/03/24 00:33:43;;;;;;;0.60;0.60;;;7.30;99.90;;;;;;4446383;32;20072;-79
2021/03/24 00:36:09;;;;;;;0.45;0.45;;;7.30;99.90;;;;;;4445868;32;20069;-79
2021/03/24 00:38:34;;;;;;;0.65;0.65;;;7.40;99.90;;;;;;4445950;32;20348;-80
2021/03/24 00:41:00;;;;;;;0.80;0.80;;;7.40;99.90;;;;;;4446717;32;20143;-80
2021/03/24 00:45:53;;;;;;;0.80;0.80;;;7.20;99.90;;;;;;4447621;32;20050;-79
2021/03/24 00:48:23;;;;;;;0.62;0.62;;;7.30;99.90;;;;;;4447726;32;20119;-79
2021/03/24 00:50:49;;;;;;;1.98;1.20;;;7.30;99.90;;;;;;4446958;32;20505;-80
2021/03/24 00:53:15;;;;;;;0.60;0.52;;;7.20;99.90;;;;;;4447030;32;20066;-79
2021/03/24 00:55:41;;;;;;;2.05;1.45;;;7.10;99.90;;;;;;4445263;32;20065;-79
2021/03/24 00:58:06;;;;;;;0.98;0.80;;;7.00;99.90;;;;;;4445612;32;20089;-79
2021/03/24 01:00:35;;;;;;;0.70;0.70;;;7.00;99.90;;;;;;4444233;32;20069;-79
2021/03/24 01:03:00;;;;;;;1.12;1.05;;;7.10;99.90;;;;;;4445249;32;20448;-79
2021/03/24 01:05:26;;;;;;;0.77;0.77;;;7.20;99.90;;;;;;4446536;32;20057;-79
2021/03/24 01:07:54;;;;;;;0.60;0.60;;;7.30;99.90;;;;;;4444909;32;20065;-79
2021/03/24 01:10:24;;;;;;;1.48;0.73;;;7.20;99.90;;;;;;4434345;32;20389;-79
2021/03/24 01:12:50;;;;;;;4.22;0.95;;;7.30;99.90;;;;;;4429728;32;20069;-79
2021/03/24 01:15:16;;;;;;;4.62;0.93;;;7.30;99.90;;;;;;4443939;32;20108;-79
2021/03/24 01:17:41;;;;;;;1.30;0.93;;;7.30;99.90;;;;;;4444908;32;20074;-79
2021/03/24 01:20:08;;;;;;;0.60;0.60;;;7.30;99.90;;;;;;4444747;32;20070;-79
2021/03/24 01:22:34;;;;;;;1.10;1.00;;;7.30;99.90;;;;;;4445356;32;20411;-79
2021/03/24 01:24:59;;;;;;;0.52;0.52;;;7.20;99.90;;;;;;4444789;32;20050;-79
2021/03/24 01:27:26;;;;;;;1.87;0.95;;;7.20;99.90;;;;;;4444478;32;20065;-79
2021/03/24 01:29:52;;;;;;;4.75;2.25;;;7.20;99.90;;;;;;4444943;32;20065;-79
2021/03/24 01:32:17;;;;;;;0.82;0.80;;;7.10;99.90;;;;;;4444543;32;20077;-79
2021/03/24 01:34:43;;;;;;;4.22;0.88;;;7.10;99.90;;;;;;4444728;32;20498;-79
2021/03/24 01:37:08;;;;;;;0.35;0.32;;;7.20;99.90;;;;;;4444577;32;20072;-79
2021/03/24 01:39:34;;;;;;;0.47;0.47;;;7.20;99.90;;;;;;4444571;32;20082;-79
2021/03/24 01:42:00;;;;;;;2.20;1.10;;;7.20;99.90;;;;;;4444906;32;20169;-80
2021/03/24 01:44:26;;;;;;;0.57;0.57;;;7.20;99.90;;;;;;4446128;32;20112;-80
2021/03/24 01:46:51;;;;;;;0.65;0.65;;;7.20;99.90;;;;;;4446901;32;20070;-79
2021/03/24 01:49:32;;;;;;;0.57;0.57;;;7.20;99.90;;;;;;4446815;32;20073;-79
2021/03/24 01:52:00;;;;;;;;;;;7.10;99.90;;;;;;4446966;32;20061;-79
2021/03/24 01:54:42;;;;;;;0.30;0.30;;;7.20;99.90;;;;;;4446314;32;19948;-79
2021/03/24 01:57:16;;;;;;;0.62;0.62;;;7.30;99.90;;;;;;4446725;32;20069;-79
2021/03/24 01:59:41;;;;;;;0.50;0.50;;;7.30;99.90;;;;;;4445994;32;20089;-79
2021/03/24 02:02:14;;;;;;;1.65;0.60;;;7.30;99.90;;;;;;4446716;32;20413;-80
2021/03/24 02:04:39;;;;;;;0.90;0.80;;;7.20;99.90;;;;;;4446456;32;20082;-79
2021/03/24 02:07:10;;;;;;;2.62;1.27;;;7.30;99.90;;;;;;4446234;32;20526;-79
2021/03/24 02:10:00;;;;;;;0.60;0.60;;;7.30;99.90;;;;;;4440588;32;20061;-79
2021/03/24 02:12:33;;;;;;;0.60;0.60;;;7.20;99.90;;;;;;4431647;32;20061;-79
2021/03/24 02:15:07;;;;;;;1.33;0.80;;;7.20;99.90;;;;;;4446018;32;20066;-80
2021/03/24 02:17:36;;;;;;;1.37;1.00;;;7.30;99.90;;;;;;4446400;32;20441;-79
2021/03/24 02:20:07;;;;;;;1.02;0.93;;;7.30;99.90;;;;;;4445997;32;20411;-79
2021/03/24 02:22:41;;;;;;;0.60;0.60;;;7.30;99.90;;;;;;4449872;32;20124;-79
2021/03/24 02:25:12;;;;;;;1.55;0.82;;;7.30;99.90;;;;;;4448863;32;20108;-80
2021/03/24 02:27:46;;;;;;;0.60;0.60;;;7.30;99.90;;;;;;4447109;32;20078;-80
2021/03/24 02:30:18;;;;;;;1.15;0.50;;;7.20;99.90;;;;;;4449769;32;20069;-80
2021/03/24 02:32:49;;;;;;;0.80;0.75;;;7.20;99.90;;;;;;4448913;32;20078;-80
2021/03/24 02:35:20;;;;;;;0.50;0.50;;;7.20;99.90;;;;;;4449424;32;20073;-80
2021/03/24 02:37:46;;;;;;;0.70;0.70;;;7.30;99.90;;;;;;4449000;32;20248;-80
2021/03/24 02:40:17;;;;;;;0.40;0.40;;;7.30;99.90;;;;;;4449157;32;20108;-80
2021/03/24 02:42:45;;;;;;;3.10;0.90;;;7.20;99.90;;;;;;4448670;32;20073;-80
2021/03/24 02:45:15;;;;;;;0.77;0.77;;;7.20;99.90;;;;;;4449364;32;20115;-79
2021/03/24 02:47:43;;;;;;;0.60;0.60;;;7.20;99.90;;;;;;4449032;32;20089;-80
2021/03/24 02:50:11;;;;;;;1.65;1.08;;;7.20;99.90;;;;;;4449023;32;20119;-80
2021/03/24 02:52:37;;;;;;;5.68;1.17;;;7.10;99.90;;;;;;4449696;32;20078;-79
2021/03/24 02:55:06;;;;;;;2.45;1.08;;;7.20;99.90;;;;;;4434107;32;20392;-80
2021/03/24 02:57:31;;;;;;;2.00;1.02;;;7.20;99.90;;;;;;4432778;32;20471;-79
2021/03/24 02:59:57;;;;;;;9.77;0.95;;;7.10;99.90;;;;;;4434773;32;20062;-80
2021/03/24 03:02:27;;;;;;;2.50;0.98;;;7.10;99.90;;;;;;4448771;32;20077;-80
2021/03/24 03:05:04;;;;;;;2.78;1.02;;;7.10;99.90;;;;;;4449712;32;20062;-80
2021/03/24 03:07:35;;;;;;;2.78;0.70;;;7.10;99.90;;;;;;4448015;32;20077;-80
2021/03/24 03:10:07;;;;;;;3.08;0.90;;;7.20;99.90;;;;;;4447812;32;20088;-80
2021/03/24 03:12:39;;;;;;;4.53;0.85;;;7.20;99.90;;;;;;4433710;32;20089;-80
2021/03/24 03:15:13;;;;;;;3.03;0.65;;;7.10;99.90;;;;;;4449537;32;20061;-80
2021/03/24 03:17:43;;;;;;;2.62;0.77;;;7.20;99.90;;;;;;4448150;32;20069;-80
2021/03/24 03:20:17;;;;;;;1.98;1.00;;;7.10;99.90;;;;;;4448335;32;20062;-80
2021/03/24 03:22:47;;;;;;;0.85;0.57;;;7.00;99.90;;;;;;4448473;32;20676;-79
2021/03/24 03:25:19;;;;;;;1.40;0.65;;;7.20;99.90;;;;;;4448947;32;20069;-80
2021/03/24 03:27:46;;;;;;;0.60;0.60;;;7.30;99.90;;;;;;4447385;32;20066;-80
2021/03/24 03:30:15;;;;;;;1.65;0.82;;;7.20;99.90;;;;;;4448194;32;20078;-80
2021/03/24 03:32:42;;;;;;;0.95;0.95;;;7.30;99.90;;;;;;4448371;32;20069;-80
2021/03/24 03:35:15;;;;;;;1.52;0.82;;;7.30;99.90;;;;;;4448648;32;20106;-79
2021/03/24 03:37:41;;;;;;;0.57;0.57;;;7.30;99.90;;;;;;4448162;32;20064;-80
2021/03/24 03:40:11;;;;;;;0.65;0.65;;;7.20;99.90;;;;;;4447742;32;20388;-79
2021/03/24 03:42:38;;;;;;;0.60;0.60;;;7.20;99.90;;;;;;4448386;32;20073;-80
2021/03/24 03:45:05;;;;;;;0.62;0.62;;;7.20;99.90;;;;;;4447805;32;20077;-80
2021/03/24 03:47:31;;;;;;;0.62;0.62;;;7.20;99.90;;;;;;4448495;32;20572;-80
2021/03/24 03:49:56;;;;;;;0.50;0.50;;;7.10;99.90;;;;;;4447895;32;20073;-80
2021/03/24 03:53:02;;;;;;;1.35;1.05;;;7.10;99.90;;;;;;4448545;32;20499;-80
2021/03/24 03:55:37;;;;;;;0.73;0.73;;;7.00;99.90;;;;;;4427458;32;20462;-79
2021/03/24 03:58:13;;;;;;;3.83;0.88;;;7.10;99.90;;;;;;4448192;32;20140;-80
2021/03/24 04:00:50;;;;;;;1.55;0.80;;;7.10;99.90;;;;;;4447561;32;20053;-79
2021/03/24 04:03:18;;;;;;;1.05;0.98;;;7.10;99.90;;;;;;4448855;32;20074;-79
2021/03/24 04:05:50;;;;;;;0.60;0.60;;;7.00;99.90;;;;;;4447972;32;20070;-79
2021/03/24 04:08:21;;;;;;;0.90;0.82;;;7.00;99.90;;;;;;4447948;32;20058;-80
2021/03/24 04:10:49;;;;;;;;;;;7.20;99.90;;;;;;4440142;32;20073;-80
2021/03/24 04:13:16;;;;;;;0.50;0.50;;;7.20;99.90;;;;;;4448087;32;20016;-79
2021/03/24 04:15:41;;;;;;;2.55;1.87;;;7.00;99.90;;;;;;4447732;32;20119;-79
2021/03/24 04:18:12;;;;;;;1.15;1.05;;;7.00;99.90;;;;;;4447980;32;20073;-79
2021/03/24 04:20:40;;;;;;;0.88;0.88;;;7.00;99.90;;;;;;4446498;32;20060;-79
2021/03/24 04:23:09;;;;;;;0.62;0.62;;;6.90;99.90;;;;;;4447620;32;20183;-79
2021/03/24 04:25:51;;;;;;;1.08;0.70;;;6.80;99.90;;;;;;4447319;32;20065;-79
2021/03/24 04:28:20;;;;;;;0.82;0.80;;;6.90;99.90;;;;;;4447322;32;20464;-79
2021/03/24 04:30:54;;;;;;;3.20;1.45;;;6.90;99.90;;;;;;4446953;32;20080;-80
2021/03/24 04:33:20;;;;;;;1.10;0.93;;;6.90;99.90;;;;;;4447076;32;20064;-80
2021/03/24 04:35:46;;;;;;;0.40;0.40;;;6.90;99.90;;;;;;4447357;32;20086;-80
2021/03/24 04:38:38;;;;;;;1.23;1.10;;;6.80;99.90;;;;;;4446648;32;20065;-79
2021/03/24 04:41:09;;;;;;;0.77;0.77;;;6.80;99.90;;;;;;4434296;32;20069;-79
2021/03/24 04:43:38;;;;;;;1.20;1.10;;;6.90;99.90;;;;;;4446264;32;20061;-79
2021/03/24 04:46:11;;;;;;;1.02;0.93;;;6.90;99.90;;;;;;4446843;32;20200;-79
2021/03/24 04:48:48;;;;;;;6.82;2.92;;;6.90;99.90;;;;;;4446585;32;20082;-79
2021/03/24 04:51:21;;;;;;;0.50;0.50;;;6.80;99.90;;;;;;4446198;32;20407;-79
2021/03/24 04:53:52;;;;;;;11.48;1.60;;;6.80;99.90;;;;;;4447508;32;20069;-79
2021/03/24 04:56:19;;;;;;;0.68;0.68;;;6.80;99.90;;;;;;4444866;32;20085;-78
2021/03/24 04:58:51;;;;;;;1.10;0.90;;;6.80;99.90;;;;;;4445601;32;20065;-78
2021/03/24 05:01:20;;;;;;;1.15;0.88;;;6.90;99.90;;;;;;4445480;32;20062;-78
2021/03/24 05:03:49;;;;;;;0.70;0.70;;;6.90;99.90;;;;;;4446416;32;20084;-78
2021/03/24 05:06:24;;;;;;;6.40;1.23;;;6.90;99.90;;;;;;4446310;32;20112;-79
2021/03/24 05:08:50;;;;;;;4.75;0.98;;;6.80;99.90;;;;;;4446311;32;20072;-79
2021/03/24 05:11:25;;;;;;;1.10;0.62;;;6.80;99.90;;;;;;4437565;32;20085;-78
2021/03/24 05:14:01;;;;;;;0.98;0.77;;;6.90;99.90;;;;;;4445450;32;20065;-78
2021/03/24 05:16:33;;;;;;;1.17;0.90;;;6.80;99.90;;;;;;4446043;32;20073;-79
2021/03/24 05:19:00;;;;;;;1.25;1.10;;;6.80;99.90;;;;;;4446048;32;20116;-79
2021/03/24 05:21:47;;;;;;;2.20;0.80;;;6.90;99.90;;;;;;4439739;32;20143;-79
2021/03/24 05:24:15;;;;;;;1.05;0.77;;;7.00;99.90;;;;;;4431096;32;20068;-79
2021/03/24 05:26:45;;;;;;;0.88;0.82;;;7.10;99.90;;;;;;4440720;32;20131;-79
2021/03/24 05:29:16;;;;;;;0.85;0.85;;;7.00;99.90;;;;;;4445395;32;20054;-79
2021/03/24 05:31:46;;;;;;;0.70;0.70;;;7.10;99.90;;;;;;4445578;32;20061;-79
2021/03/24 05:34:15;;;;;;;3.00;1.90;;;7.00;99.90;;;;;;4445971;32;20172;-79
2021/03/24 05:36:44;;;;;;;1.33;0.98;;;7.10;99.90;;;;;;4445432;32;20073;-78
2021/03/24 05:39:32;;;;;;;0.80;0.80;;;7.10;99.90;;;;;;4444772;32;20411;-79
2021/03/24 05:42:07;;;;;;;3.85;1.17;;;7.00;99.90;;;;;;4429299;32;20115;-78
2021/03/24 05:44:49;;;;;;;1.05;0.98;;;6.90;99.90;;;;;;4445556;32;20530;-79
2021/03/24 05:47:36;;;;;;;1.05;0.60;;;7.00;99.90;;;;;;4445667;32;20061;-79
2021/03/24 05:50:23;;;;;;;1.12;0.85;;;6.90;99.90;;;;;;4433656;32;20065;-79
2021/03/24 05:53:28;;;;;;;0.80;0.70;;;6.90;99.90;;;;;;4428961;32;20477;-79
2021/03/24 05:56:02;;;;;;;0.82;0.82;;;7.00;99.90;;;;;;4427728;32;20058;-79
2021/03/24 05:58:35;;;;;;;0.73;0.73;;;7.10;99.90;;;;;;4449095;32;20073;-79
2021/03/24 06:01:10;;;;;;;2.05;1.37;;;7.00;99.90;;;;;;4432469;32;20060;-79
2021/03/24 06:03:53;;;;;;;1.67;1.40;;;7.00;99.90;;;;;;4431509;32;20082;-79
2021/03/24 06:06:43;;;;;;;0.85;0.85;;;7.10;99.90;;;;;;4448701;32;20069;-78
2021/03/24 06:09:41;;;;;;;1.62;1.27;;;7.10;99.90;;;;;;4457121;32;20068;-79
2021/03/24 06:12:27;;;;;;;5.60;1.42;;;7.10;99.90;;;;;;4431753;32;20054;-79
2021/03/24 06:15:17;;;;;;;0.62;0.62;;;7.10;99.90;;;;;;4433606;32;20086;-79
2021/03/24 06:18:05;;;;;;;4.62;1.33;;;7.10;99.90;;;;;;4419752;32;20135;-79
2021/03/24 06:20:33;;;;;;;1.10;1.00;;;7.20;99.90;;;;;;4418337;32;20462;-79
2021/03/24 06:23:37;;;;;;;0.82;0.82;;;7.20;99.90;;;;;;4432400;32;20773;-79
2021/03/24 06:26:31;;;;;;;1.33;0.90;;;7.20;99.90;;;;;;4434273;32;20482;-79
2021/03/24 06:29:11;;;;;;;2.08;1.10;;;7.30;99.90;;;;;;4421712;32;20061;-79
2021/03/24 06:32:17;;;;;;;3.08;1.30;;;7.30;99.90;;;;;;4419351;32;20500;-80
2021/03/24 06:34:53;;;;;;;4.70;1.90;;;7.30;99.90;;;;;;4416545;32;20069;-80
2021/03/24 06:37:32;;;;;;;0.82;0.82;;;7.30;99.90;;;;;;4421760;32;20077;-79
2021/03/24 06:40:20;;;;;;;1.37;1.12;;;7.20;99.90;;;;;;4440474;32;20107;-79
2021/03/24 06:43:00;;;;;;;4.05;1.98;;;7.20;99.90;;;;;;4431245;32;20065;-80
2021/03/24 06:45:49;;;;;;;4.80;1.27;;;7.30;99.90;;;;;;4444025;32;20065;-79
2021/03/24 06:48:53;;;;;;;2.00;1.45;;;7.30;99.90;;;;;;4448304;32;20068;-79
2021/03/24 06:51:58;;;;;;;2.40;2.20;;;7.30;99.90;;;;;;4438649;32;20415;-79
2021/03/24 06:54:45;;;;;;;6.55;2.62;;;7.30;99.90;;;;;;4421000;32;20240;-78
2021/03/24 06:57:29;;;;;;;2.45;1.70;;;7.20;99.90;;;;;;4438110;32;20103;-79
2021/03/24 07:00:24;;;;;;;5.87;2.05;;;7.20;99.90;;;;;;4445710;32;20089;-78
2021/03/24 07:02:59;;;;;;;1.98;1.42;;;7.20;99.90;;;;;;4430797;32;20077;-80
2021/03/24 07:05:46;;;;;;;11.27;1.70;;;7.20;99.90;;;;;;4449453;32;20131;-81
2021/03/24 07:08:28;;;;;;;8.50;2.70;;;7.20;99.90;;;;;;4435975;32;20085;-81
2021/03/24 07:10:55;;;;;;;1.23;0.90;;;7.30;99.90;;;;;;4443949;32;20395;-81
2021/03/24 07:13:42;;;;;;;4.95;1.60;;;7.30;99.90;;;;;;4446954;32;20065;-81
2021/03/24 07:16:32;;;;;;;1.37;1.27;;;7.40;99.90;;;;;;4444382;32;20428;-81
2021/03/24 07:19:12;;;;;;;7.10;3.23;;;7.40;99.90;;;;;;4436257;32;20132;-80
2021/03/24 07:22:07;;;;;;;3.80;1.92;;;7.40;99.90;;;;;;4447704;32;20057;-81
2021/03/24 07:25:11;;;;;;;1.80;1.52;;;7.40;99.90;;;;;;4439520;32;20173;-81
2021/03/24 07:27:52;;;;;;;7.93;3.47;;;7.50;99.90;;;;;;4423020;32;20065;-81
2021/03/24 07:30:39;;;;;;;3.58;1.62;;;7.50;99.90;;;;;;4444502;32;20068;-80
2021/03/24 07:33:26;;;;;;;8.05;2.85;;;7.50;99.90;;;;;;4444444;32;20084;-81
2021/03/24 07:36:32;;;;;;;7.15;2.35;;;7.60;99.90;;;;;;4431569;32;20069;-81
2021/03/24 07:39:37;;;;;;;2.12;1.73;;;7.70;99.90;;;;;;4425868;32;20127;-81
2021/03/24 07:42:23;;;;;;;12.88;1.83;;;7.70;99.90;;;;;;4424227;32;20061;-81
2021/03/24 07:45:03;;;;;;;5.20;2.65;;;7.80;99.90;;;;;;4448433;32;20069;-81
2021/03/24 07:48:06;;;;;;;6.75;2.10;;;7.80;99.90;;;;;;4446305;32;20065;-81
2021/03/24 07:50:36;;;;;;;9.93;1.92;;;7.70;99.90;;;;;;4431587;32;20089;-79
2021/03/24 07:53:32;;;;;;;3.65;1.75;;;7.80;99.90;;;;;;4444059;32;20057;-80
2021/03/24 07:56:09;;;;;;;1.90;1.48;;;7.80;99.90;;;;;;4431111;32;20080;-80
2021/03/24 07:59:04;;;;;;;1.77;1.20;;;7.90;99.90;;;;;;4442917;32;20533;-81
2021/03/24 08:01:56;;;;;;;2.78;1.55;;;7.90;99.90;;;;;;4432432;32;20602;-80
2021/03/24 08:04:58;;;;;;;6.43;2.05;;;8.10;99.90;;;;;;4430865;32;20074;-80
2021/03/24 08:07:39;;;;;;;10.07;2.62;;;8.20;99.90;;;;;;4434802;32;20076;-80
2021/03/24 08:10:24;;;;;;;;;;;8.20;99.90;;;;;;4443548;32;20065;-80
2021/03/24 08:12:53;;;;;;;3.95;2.03;;;8.30;99.90;;;;;;4428630;32;20289;-80
2021/03/24 08:15:28;;;;;;;2.53;1.73;;;8.20;99.90;;;;;;4429950;32;20093;-79
2021/03/24 08:18:18;;;;;;;2.20;1.60;;;8.20;99.90;;;;;;4438897;32;20057;-80
2021/03/24 08:21:04;;;;;;;33.78;2.50;;;8.20;99.90;;;;;;4443546;32;20078;-80
2021/03/24 08:23:39;;;;;;;4.90;1.85;;;8.30;99.90;;;;;;4429846;32;20108;-81
2021/03/24 08:26:14;;;;;;;7.80;2.53;;;8.40;99.90;;;;;;4442419;32;20314;-82
2021/03/24 08:28:54;;;;;;;8.13;2.80;;;8.50;99.90;;;;;;4430370;32;20053;-80
2021/03/24 08:31:40;;;;;;;5.12;2.15;;;8.70;99.90;;;;;;4440732;32;20065;-82
2021/03/24 08:34:37;;;;;;;3.22;1.98;;;8.80;99.90;;;;;;4427085;32;20101;-85
2021/03/24 08:37:23;;;;;;;3.95;1.80;;;9.10;99.90;;;;;;4435725;32;20123;-83
2021/03/24 08:40:16;;;;;;;2.40;1.67;;;9.10;99.90;;;;;;4434522;32;20073;-83
2021/03/24 08:42:52;;;;;;;5.18;1.73;;;9.00;99.90;;;;;;4431129;32;20084;-84
2021/03/24 08:45:30;;;;;;;10.02;2.12;;;9.00;99.90;;;;;;4429292;32;20089;-81
2021/03/24 08:48:02;;;;;;;4.78;1.58;;;9.20;99.90;;;;;;4442592;32;20069;-82
2021/03/24 08:50:33;;;;;;;3.08;2.17;;;9.40;99.90;;;;;;4439283;32;20089;-79
2021/03/24 08:53:19;;;;;;;6.62;1.98;;;9.50;99.90;;;;;;4442232;32;20119;-80
2021/03/24 08:56:09;;;;;;;3.53;1.37;;;9.60;99.90;;;;;;4441467;32;20073;-79
2021/03/24 08:58:42;;;;;;;5.43;2.15;;;9.60;99.90;;;;;;4432808;32;20156;-79
2021/03/24 09:01:38;;;;;;;4.80;2.03;;;9.60;99.90;;;;;;4433745;32;20136;-82
2021/03/24 09:04:32;;;;;;;1.87;1.65;;;9.60;99.90;;;;;;4433009;32;20114;-80
2021/03/24 09:07:13;;;;;;;11.23;1.50;;;9.60;99.90;;;;;;4439412;32;20089;-79
2021/03/24 09:10:04;;;;;;;8.98;2.78;;;9.60;99.90;;;;;;4436803;32;20078;-82
2021/03/24 09:12:37;;;;;;;4.18;1.65;;;9.70;99.90;;;;;;4434531;32;20502;-81
2021/03/24 09:15:16;;;;;;;5.30;2.35;;;9.60;99.90;;;;;;4443720;32;20950;-80
2021/03/24 09:18:06;;;;;;;3.78;2.05;;;9.60;99.90;;;;;;4443320;32;20060;-81
2021/03/24 09:21:01;;;;;;;3.40;1.65;;;9.70;99.90;;;;;;4431999;32;20082;-80
2021/03/24 09:23:42;;;;;;;7.90;2.03;;;9.80;99.90;;;;;;4431358;32;20127;-80
2021/03/24 09:26:36;;;;;;;3.40;1.62;;;9.60;99.90;;;;;;4432877;32;20085;-80
2021/03/24 09:29:21;;;;;;;2.40;1.10;;;9.60;99.90;;;;;;4436106;32;20077;-80
2021/03/24 09:32:17;;;;;;;5.93;2.33;;;9.60;99.90;;;;;;4445071;32;20142;-80
2021/03/24 09:35:10;;;;;;;1.60;1.20;;;9.80;99.90;;;;;;4432712;32;20530;-78
2021/03/24 09:37:40;;;;;;;4.65;2.37;;;9.90;99.90;;;;;;4435580;32;84789;-79
2021/03/24 09:40:28;;;;;;;7.37;2.63;;;9.80;99.90;;;;;;4445062;32;20049;-81
2021/03/24 09:42:57;;;;;;;3.78;1.62;;;9.60;99.90;;;;;;4448013;32;20065;-80
2021/03/24 09:45:28;;;;;;;1.87;1.33;;;9.70;99.90;;;;;;4446257;32;20172;-81
2021/03/24 09:48:14;;;;;;;17.92;2.10;;;9.80;99.90;;;;;;4444043;32;20064;-81
2021/03/24 09:50:46;;;;;;;3.97;1.60;;;10.00;99.90;;;;;;4438990;32;20084;-81
2021/03/24 09:53:16;;;;;;;1.75;1.50;;;10.10;99.90;;;;;;4436296;32;20371;-81
2021/03/24 09:55:59;;;;;;;5.53;2.20;;;10.00;99.90;;;;;;4436541;32;20093;-82
2021/03/24 09:58:27;;;;;;;5.72;2.35;;;9.90;99.90;;;;;;4440352;32;20250;-80
2021/03/24 10:01:15;;;;;;;4.32;1.70;;;9.90;99.90;;;;;;4443721;32;20112;-81
2021/03/24 10:03:49;;;;;;;9.43;2.35;;;9.90;99.90;;;;;;4442006;32;20106;-81
2021/03/24 10:06:25;;;;;;;2.62;1.85;;;9.80;99.90;;;;;;4441747;32;20111;-81
2021/03/24 10:09:02;;;;;;;7.10;1.60;;;9.80;99.90;;;;;;4441140;32;20073;-80
2021/03/24 10:11:37;;;;;;;9.50;2.17;;;9.90;99.90;;;;;;4441419;32;20068;-81
2021/03/24 10:14:10;;;;;;;5.70;2.10;;;10.10;99.90;;;;;;4434099;32;20077;-81
2021/03/24 10:16:43;;;;;;;3.87;2.08;;;10.20;99.90;;;;;;4442217;32;20474;-81
2021/03/24 10:19:20;;;;;;;9.32;2.37;;;10.20;99.90;;;;;;4442600;32;20473;-79
2021/03/24 10:21:52;;;;;;;8.13;3.42;;;10.30;99.90;;;;;;4448868;32;20166;-80
2021/03/24 10:24:25;;;;;;;7.40;2.10;;;10.30;99.90;;;;;;4442138;32;20084;-82
2021/03/24 10:26:55;;;;;;;4.12;1.98;;;10.40;99.90;;;;;;4440104;32;20166;-82
2021/03/24 10:29:26;;;;;;;13.00;2.37;;;10.40;99.90;;;;;;4439121;32;20178;-82
2021/03/24 10:31:59;;;;;;;1.20;0.98;;;10.40;99.90;;;;;;4443335;32;20080;-81
2021/03/24 10:34:34;;;;;;;6.05;1.30;;;10.60;99.90;;;;;;4441112;32;20072;-81
2021/03/24 10:37:27;;;;;;;3.83;1.62;;;10.80;99.90;;;;;;4440367;32;20084;-81
2021/03/24 10:40:11;;;;;;;2.25;1.48;;;10.60;99.90;;;;;;4409848;32;20077;-81
2021/03/24 10:43:00;;;;;;;4.43;2.15;;;10.70;99.90;;;;;;4412289;32;20093;-79
2021/03/24 10:45:31;;;;;;;15.65;2.03;;;10.80;99.90;;;;;;4409610;32;20065;-82
2021/03/24 10:48:23;;;;;;;7.45;1.73;;;10.90;99.90;;;;;;4413872;32;20073;-82
2021/03/24 10:51:03;;;;;;;4.03;1.73;;;10.90;99.90;;;;;;4411587;32;20079;-79
2021/03/24 10:53:33;;;;;;;0.87;0.87;;;10.80;99.90;;;;;;4416943;32;20082;-82
2021/03/24 10:56:14;;;;;;;24.90;1.42;;;10.90;99.90;;;;;;4415102;32;20163;-81
2021/03/24 10:59:01;;;;;;;1.95;1.42;;;10.90;99.90;;;;;;4410955;32;20077;-80
2021/03/24 11:01:39;;;;;;;2.33;1.58;;;11.00;99.90;;;;;;4414094;32;20401;-81
2021/03/24 11:04:18;;;;;;;6.75;1.83;;;11.20;99.90;;;;;;4414195;32;20073;-80
2021/03/24 11:07:05;;;;;;;9.15;1.17;;;11.40;99.90;;;;;;4414442;32;20077;-80
2021/03/24 11:09:54;;;;;;;8.35;2.08;;;11.60;99.90;;;;;;4423283;32;20078;-82
2021/03/24 11:12:33;;;;;;;25.35;3.33;;;11.70;99.90;;;;;;4412415;32;20094;-82
2021/03/24 11:15:05;;;;;;;2.47;1.75;;;11.70;99.90;;;;;;4416235;32;20077;-83
2021/03/24 11:17:36;;;;;;;1.65;1.45;;;11.80;99.90;;;;;;4415134;32;20069;-81
2021/03/24 11:20:07;;;;;;;;;;;12.10;99.90;;;;;;4412384;32;20401;-81
2021/03/24 11:22:49;;;;;;;2.28;1.05;;;12.00;99.90;;;;;;4413941;32;19953;-82
2021/03/24 11:25:39;;;;;;;3.42;1.55;;;11.70;99.90;;;;;;4413552;32;20066;-80
2021/03/24 11:28:19;;;;;;;2.58;1.55;;;11.50;99.90;;;;;;4407236;32;20087;-79
2021/03/24 11:30:50;;;;;;;3.87;2.25;;;11.50;99.90;;;;;;4413132;32;20062;-79
2021/03/24 11:33:30;;;;;;;1.10;1.05;;;11.70;99.90;;;;;;4417917;32;20131;-79
2021/03/24 11:36:14;;;;;;;12.82;1.37;;;12.40;99.90;;;;;;4412506;32;20131;-79
2021/03/24 11:38:47;;;;;;;2.70;1.40;;;12.60;99.90;;;;;;4426614;32;20198;-83
2021/03/24 11:41:21;;;;;;;4.62;2.03;;;12.60;99.90;;;;;;4444610;32;20147;-80
2021/03/24 11:43:57;;;;;;;3.37;1.27;;;12.80;99.90;;;;;;4441592;32;20088;-82
2021/03/24 11:46:30;;;;;;;1.35;0.90;;;12.90;99.90;;;;;;4431096;32;20348;-79
2021/03/24 11:49:12;;;;;;;2.40;1.20;;;12.80;99.90;;;;;;4447730;32;20404;-82
2021/03/24 11:51:52;;;;;;;1.73;1.25;;;12.70;99.90;;;;;;4443727;32;20068;-81
2021/03/24 11:54:29;;;;;;;1.77;1.40;;;12.40;99.90;;;;;;4440146;32;20180;-81
2021/03/24 11:57:15;;;;;;;1.10;1.00;;;12.50;99.90;;;;;;4442357;32;20065;-80
2021/03/24 11:59:57;;;;;;;10.52;2.12;;;12.90;99.90;;;;;;4442343;32;20537;-80
2021/03/24 12:02:43;;;;;;;0.80;0.80;;;13.00;99.90;;;;;;4439227;32;20076;-79
2021/03/24 12:05:30;;;;;;;3.25;1.10;;;13.00;99.90;;;;;;4438773;32;20077;-81
2021/03/24 12:08:03;;;;;;;1.73;1.25;;;13.50;99.90;;;;;;4442989;32;20077;-80
2021/03/24 12:10:32;;;;;;;3.62;1.23;;;13.70;99.90;;;;;;4444000;32;20156;-80
2021/03/24 12:13:00;;;;;;;4.47;2.00;;;14.30;99.90;;;;;;4443681;32;20068;-79
2021/03/24 12:15:31;;;;;;;1.35;0.90;;;14.90;99.90;;;;;;4439398;32;20125;-78
2021/03/24 12:18:17;;;;;;;3.70;1.48;;;15.10;99.90;;;;;;4438879;32;20065;-79
2021/03/24 12:20:54;;;;;;;2.58;1.45;;;15.10;99.90;;;;;;4429167;32;20403;-80
2021/03/24 12:23:23;;;;;;;11.98;2.35;;;15.40;99.90;;;;;;4436905;32;20068;-78
2021/03/24 12:25:54;;;;;;;17.17;2.17;;;15.70;99.90;;;;;;4434321;32;20076;-78
2021/03/24 12:28:27;;;;;;;4.32;1.58;;;16.30;99.90;;;;;;4435765;32;20058;-79
2021/03/24 12:31:03;;;;;;;1.67;1.15;;;16.20;99.90;;;;;;4429805;32;20065;-78
2021/03/24 12:33:31;;;;;;;0.90;0.73;;;16.40;99.90;;;;;;4431312;32;20553;-78
2021/03/24 12:36:03;;;;;;;3.75;1.08;;;16.70;99.70;;;;;;4432711;32;20066;-78
2021/03/24 12:38:29;;;;;;;8.88;2.65;;;16.70;98.30;;;;;;4433457;32;20077;-78
2021/03/24 12:40:59;;;;;;;0.93;0.77;;;16.70;99.20;;;;;;4434979;32;20081;-82
2021/03/24 12:43:27;;;;;;;0.80;0.75;;;16.80;98.50;;;;;;4436629;32;20115;-80
2021/03/24 12:45:53;;;;;;;4.30;1.23;;;16.80;98.20;;;;;;4433905;32;21364;-78
2021/03/24 12:48:22;;;;;;;4.15;1.48;;;16.90;97.70;;;;;;4440066;32;20486;-80
2021/03/24 12:51:09;;;;;;;2.33;1.33;;;17.10;96.90;;;;;;4430389;32;20085;-80
2021/03/24 12:53:53;;;;;;;5.72;1.85;;;17.30;96.20;;;;;;4433460;32;20133;-77
2021/03/24 12:56:59;;;;;;;1.80;1.15;;;17.10;95.90;;;;;;4442001;32;20085;-79
2021/03/24 12:59:44;;;;;;;4.32;1.58;;;17.50;95.80;;;;;;4437422;32;20084;-80
2021/03/24 13:02:19;;;;;;;1.90;0.73;;;17.80;93.50;;;;;;4435328;32;20085;-82
2021/03/24 13:04:58;;;;;;;1.70;1.35;;;17.50;94.60;;;;;;4454312;32;20077;-83
2021/03/24 13:07:46;;;;;;;8.05;1.37;;;17.30;94.60;;;;;;4442551;32;20076;-80
2021/03/24 13:10:35;;;;;;;3.95;1.05;;;17.70;93.80;;;;;;4440888;32;20139;-81
2021/03/24 13:13:26;;;;;;;4.62;1.25;;;17.90;93.10;;;;;;4438762;32;20088;-80
2021/03/24 13:16:03;;;;;;;1.48;1.25;;;18.40;92.70;;;;;;4431434;32;20078;-81
2021/03/24 13:18:43;;;;;;;1.00;0.90;;;18.50;92.30;;;;;;4444620;32;20136;-83
2021/03/24 13:21:28;;;;;;;2.03;1.08;;;18.40;91.10;;;;;;4448534;32;20069;-83
2021/03/24 13:24:08;;;;;;;3.28;1.50;;;18.50;92.30;;;;;;4446873;32;20517;-82
2021/03/24 13:26:37;;;;;;;3.00;1.52;;;18.90;90.90;;;;;;4441284;32;20061;-84
2021/03/24 13:29:37;;;;;;;3.05;1.27;;;19.30;87.60;;;;;;4436808;32;20081;-83
2021/03/24 13:32:10;;;;;;;2.50;1.10;;;19.00;89.00;;;;;;4431378;32;20069;-84
2021/03/24 13:34:59;;;;;;;4.40;1.92;;;18.80;88.00;;;;;;4440460;32;20077;-81
2021/03/24 13:37:27;;;;;;;3.95;0.88;;;18.50;89.10;;;;;;4431418;32;20072;-82
2021/03/24 13:40:03;;;;;;;1.92;1.00;;;18.30;90.10;;;;;;4441440;32;20065;-81
2021/03/24 13:42:37;;;;;;;2.95;1.17;;;18.50;89.30;;;;;;4434026;32;20081;-81
2021/03/24 13:45:06;;;;;;;1.62;1.15;;;18.30;90.60;;;;;;4443253;32;20138;-83
2021/03/24 13:47:45;;;;;;;3.33;1.70;;;18.10;92.00;;;;;;4439092;32;20065;-81